Time;durP1;ratioP1;P1;durP2;ratioP2;P2;SDS_P1;SDS_P2;PMS_P1;PMS_P2;Temp;Humidity;BMP_temperature;BMP_pressure;BME280_temperature;BME280_humidity;BME280_pressure;Samples;Min_cycle;Max_cycle;Signal;HPM_P1;HPM_P2
2022/11/02 00:00:28;;;;;;;6.80;3.72;;;13.50;70.40;;;;;;4994502;28;20189;-68
2022/11/02 00:02:54;;;;;;;9.30;4.25;;;13.40;70.80;;;;;;4990033;28;20185;-71
2022/11/02 00:05:23;;;;;;;8.93;4.00;;;13.40;71.60;;;;;;4992628;28;20757;-70
2022/11/02 00:07:51;;;;;;;6.80;4.22;;;13.30;70.30;;;;;;4989642;28;20273;-70
2022/11/02 00:10:17;;;;;;;8.30;3.88;;;13.30;70.30;;;;;;4988561;28;20188;-70
2022/11/02 00:12:43;;;;;;;9.45;3.90;;;13.30;71.30;;;;;;4990119;28;20302;-70
2022/11/02 00:15:09;;;;;;;4.45;3.53;;;13.20;70.90;;;;;;4992914;28;20193;-70
2022/11/02 00:17:36;;;;;;;7.00;3.35;;;13.20;71.80;;;;;;4991453;28;20256;-71
2022/11/02 00:20:04;;;;;;;5.82;3.55;;;13.20;72.00;;;;;;4988648;28;20192;-70
2022/11/02 00:22:30;;;;;;;4.82;3.30;;;13.10;71.60;;;;;;4990985;28;20185;-71
2022/11/02 00:24:56;;;;;;;4.50;3.47;;;13.10;71.40;;;;;;5004236;28;20200;-70
2022/11/02 00:27:23;;;;;;;4.40;2.97;;;13.10;71.90;;;;;;5013149;28;20193;-70
2022/11/02 00:29:48;;;;;;;8.18;3.75;;;13.10;71.50;;;;;;5008982;28;20267;-70
2022/11/02 00:32:14;;;;;;;5.90;3.55;;;13.00;71.20;;;;;;5012369;28;20311;-70
2022/11/02 00:34:40;;;;;;;5.55;3.28;;;13.00;71.10;;;;;;5011769;28;20660;-71
2022/11/02 00:37:05;;;;;;;3.65;3.20;;;13.00;71.10;;;;;;5011983;28;20618;-69
2022/11/02 00:39:31;;;;;;;6.60;3.20;;;13.00;72.40;;;;;;5013021;28;20177;-70
2022/11/02 00:41:57;;;;;;;9.07;3.55;;;13.00;72.80;;;;;;5010107;28;20203;-70
2022/11/02 00:44:22;;;;;;;10.18;3.70;;;13.00;71.60;;;;;;5007912;28;20284;-72
2022/11/02 00:46:48;;;;;;;9.80;4.40;;;13.00;72.70;;;;;;5005974;28;20199;-70
2022/11/02 00:49:13;;;;;;;8.57;4.43;;;13.00;71.90;;;;;;5012176;28;20246;-70
2022/11/02 00:51:39;;;;;;;7.53;4.00;;;12.90;71.50;;;;;;5008432;28;20180;-69
2022/11/02 00:54:05;;;;;;;7.03;3.63;;;12.90;71.70;;;;;;5015248;28;20203;-69
2022/11/02 00:56:30;;;;;;;8.15;3.63;;;12.90;71.70;;;;;;5015736;28;20181;-70
2022/11/02 00:58:56;;;;;;;6.65;3.38;;;12.90;71.80;;;;;;5012877;28;20216;-70
2022/11/02 01:01:22;;;;;;;9.77;3.97;;;12.90;72.30;;;;;;5009387;28;20197;-70
2022/11/02 01:03:48;;;;;;;7.78;3.25;;;12.90;73.40;;;;;;5007540;28;20173;-70
2022/11/02 01:06:15;;;;;;;4.32;2.75;;;12.90;73.70;;;;;;5010731;28;20185;-70
2022/11/02 01:08:41;;;;;;;7.00;3.70;;;12.90;73.40;;;;;;5014439;28;20184;-68
2022/11/02 01:11:18;;;;;;;4.50;3.33;;;12.80;73.50;;;;;;5010950;28;20189;-71
2022/11/02 01:13:45;;;;;;;8.23;3.08;;;12.80;72.90;;;;;;5015612;28;20205;-69
2022/11/02 01:16:11;;;;;;;4.72;3.45;;;12.80;74.10;;;;;;5007467;28;20251;-71
2022/11/02 01:18:37;;;;;;;3.25;2.95;;;12.80;74.20;;;;;;5004578;28;20221;-71
2022/11/02 01:21:03;;;;;;;3.58;3.17;;;12.70;74.20;;;;;;5007827;28;20176;-70
2022/11/02 01:23:33;;;;;;;8.18;4.72;;;12.70;74.20;;;;;;5008587;28;20181;-70
2022/11/02 01:26:03;;;;;;;6.95;4.25;;;12.60;74.60;;;;;;5010589;28;20181;-70
2022/11/02 01:28:29;;;;;;;5.57;4.13;;;12.60;74.40;;;;;;5009806;28;20222;-70
2022/11/02 01:30:54;;;;;;;5.25;4.30;;;12.50;74.40;;;;;;5011176;28;20730;-70
2022/11/02 01:33:20;;;;;;;9.55;3.85;;;12.50;74.50;;;;;;5009181;28;20733;-70
2022/11/02 01:35:46;;;;;;;5.40;3.75;;;12.30;73.50;;;;;;5008982;28;20223;-70
2022/11/02 01:38:12;;;;;;;7.82;4.07;;;12.30;74.70;;;;;;5008659;28;21121;-70
2022/11/02 01:40:39;;;;;;;7.45;4.22;;;12.30;74.70;;;;;;5013923;28;20176;-69
2022/11/02 01:43:26;;;;;;;4.32;3.75;;;12.20;73.80;;;;;;5015116;28;20187;-70
2022/11/02 01:46:11;;;;;;;4.35;3.38;;;12.10;72.90;;;;;;5010657;28;20246;-69
2022/11/02 01:48:55;;;;;;;3.88;3.33;;;12.20;75.80;;;;;;5009691;28;20185;-70
2022/11/02 01:51:26;;;;;;;6.43;3.25;;;12.20;75.80;;;;;;5005484;28;20241;-69
2022/11/02 01:53:55;;;;;;;6.90;3.80;;;12.10;73.80;;;;;;5011210;28;20192;-70
2022/11/02 01:56:23;;;;;;;5.75;3.55;;;12.10;74.00;;;;;;5013670;28;20580;-70
2022/11/02 01:58:55;;;;;;;11.18;3.58;;;12.10;74.90;;;;;;5015180;28;20337;-70
2022/11/02 02:01:21;;;;;;;11.38;3.53;;;12.00;74.30;;;;;;5008353;28;20662;-71
2022/11/02 02:03:49;;;;;;;7.35;4.40;;;12.00;74.40;;;;;;5012709;28;20180;-68
2022/11/02 02:06:16;;;;;;;6.63;4.10;;;12.00;74.40;;;;;;5007586;28;20185;-70
2022/11/02 02:08:45;;;;;;;7.18;3.88;;;12.00;75.20;;;;;;5006442;28;20192;-69
2022/11/02 02:11:28;;;;;;;8.05;4.32;;;12.00;75.10;;;;;;5007397;28;20181;-69
2022/11/02 02:14:06;;;;;;;5.55;4.30;;;12.00;74.90;;;;;;5019784;28;20732;-71
2022/11/02 02:16:48;;;;;;;7.13;5.18;;;12.00;75.20;;;;;;5012915;28;20964;-70
2022/11/02 02:19:38;;;;;;;7.35;4.68;;;12.00;74.20;;;;;;5009998;28;20266;-70
2022/11/02 02:22:22;;;;;;;8.30;4.82;;;12.00;74.80;;;;;;5005699;28;20177;-69
2022/11/02 02:24:53;;;;;;;6.43;4.93;;;12.00;75.40;;;;;;5006848;28;20259;-70
2022/11/02 02:27:56;;;;;;;7.82;4.30;;;12.00;75.40;;;;;;5016673;28;20261;-69
2022/11/02 02:30:22;;;;;;;8.05;4.20;;;12.00;75.00;;;;;;5014618;28;20249;-69
2022/11/02 02:33:07;;;;;;;5.25;4.47;;;11.90;75.60;;;;;;5010636;28;20204;-70
2022/11/02 02:35:36;;;;;;;4.97;3.83;;;11.90;74.80;;;;;;5011171;28;20963;-70
2022/11/02 02:38:09;;;;;;;5.43;3.85;;;11.90;75.10;;;;;;5010204;28;20325;-71
2022/11/02 02:40:57;;;;;;;9.38;3.97;;;11.90;75.70;;;;;;5011297;28;20177;-70
2022/11/02 02:43:43;;;;;;;4.50;3.47;;;11.90;74.90;;;;;;5016501;28;20539;-69
2022/11/02 02:46:20;;;;;;;4.32;3.45;;;11.80;74.50;;;;;;5017461;28;20246;-69
2022/11/02 02:48:47;;;;;;;5.18;3.08;;;11.80;74.20;;;;;;5015833;28;20181;-70
2022/11/02 02:51:19;;;;;;;4.63;3.15;;;11.80;75.50;;;;;;5010260;28;20223;-69
2022/11/02 02:53:56;;;;;;;7.18;4.13;;;11.80;74.70;;;;;;5011899;28;20176;-70
2022/11/02 02:56:27;;;;;;;4.93;3.95;;;11.70;74.80;;;;;;5013175;28;20303;-70
2022/11/02 02:59:04;;;;;;;6.82;5.20;;;11.70;75.10;;;;;;5012094;28;20212;-70
2022/11/02 03:01:30;;;;;;;6.45;4.63;;;11.70;74.70;;;;;;5014546;28;20220;-69
2022/11/02 03:03:56;;;;;;;5.95;4.60;;;11.70;77.00;;;;;;5012979;28;20572;-70
2022/11/02 03:06:29;;;;;;;8.50;4.93;;;11.70;77.10;;;;;;5007552;28;20184;-70
2022/11/02 03:09:31;;;;;;;8.15;5.10;;;11.70;76.30;;;;;;5014989;28;20271;-70
2022/11/02 03:12:25;;;;;;;14.68;5.78;;;11.60;75.50;;;;;;5011042;28;20184;-70
2022/11/02 03:14:57;;;;;;;15.63;5.47;;;11.60;74.80;;;;;;5014070;28;20189;-70
2022/11/02 03:17:33;;;;;;;8.63;5.45;;;11.50;75.60;;;;;;5016707;28;20619;-69
2022/11/02 03:20:22;;;;;;;12.15;5.82;;;11.50;74.50;;;;;;5007986;28;20570;-70
2022/11/02 03:23:08;;;;;;;9.25;4.45;;;11.50;75.10;;;;;;5016374;28;20212;-70
2022/11/02 03:25:47;;;;;;;7.78;4.78;;;11.40;75.70;;;;;;5013027;28;20196;-69
2022/11/02 03:28:29;;;;;;;10.30;5.03;;;11.40;75.80;;;;;;5010966;28;20249;-70
2022/11/02 03:31:03;;;;;;;7.45;5.78;;;11.40;76.10;;;;;;5014079;28;20185;-70
2022/11/02 03:33:36;;;;;;;10.97;6.30;;;11.40;78.40;;;;;;5016617;28;20180;-70
2022/11/02 03:36:05;;;;;;;13.93;6.03;;;11.40;79.10;;;;;;5014480;28;20177;-70
2022/11/02 03:38:34;;;;;;;6.93;5.00;;;11.30;78.30;;;;;;5010371;28;20221;-69
2022/11/02 03:41:02;;;;;;;11.97;5.33;;;11.30;78.90;;;;;;5010949;28;20666;-70
2022/11/02 03:43:29;;;;;;;7.88;5.35;;;11.30;78.90;;;;;;5015464;28;20207;-71
2022/11/02 03:45:57;;;;;;;12.17;5.70;;;11.20;78.40;;;;;;5010344;28;20696;-71
2022/11/02 03:48:31;;;;;;;13.20;6.23;;;11.20;78.30;;;;;;5009278;28;20193;-70
2022/11/02 03:50:59;;;;;;;9.87;6.00;;;11.10;76.80;;;;;;5011005;28;20263;-71
2022/11/02 03:53:50;;;;;;;15.17;6.87;;;11.00;76.50;;;;;;5010935;28;20966;-70
2022/11/02 03:56:27;;;;;;;5.93;5.33;;;11.00;76.30;;;;;;5010558;28;20728;-71
2022/11/02 03:58:53;;;;;;;10.63;5.57;;;11.00;76.70;;;;;;5010795;28;20722;-71
2022/11/02 04:01:20;;;;;;;12.70;4.83;;;11.00;78.50;;;;;;5015920;28;20184;-69
2022/11/02 04:03:46;;;;;;;11.37;5.00;;;11.00;77.60;;;;;;5010329;28;20216;-71
2022/11/02 04:06:12;;;;;;;7.50;5.27;;;11.00;77.10;;;;;;5011392;28;20273;-71
2022/11/02 04:08:41;;;;;;;8.07;4.90;;;11.00;77.70;;;;;;5008025;28;20196;-71
2022/11/02 04:16:35;;;;;;;10.10;7.07;;;11.00;78.20;;;;;;5014393;28;20776;-70
2022/11/02 04:27:14;;;;;;;19.37;7.47;;;10.90;77.80;;;;;;5005417;28;20728;-70
2022/11/02 04:29:40;;;;;;;10.20;6.47;;;10.80;77.70;;;;;;5015456;28;20200;-70
2022/11/02 04:32:06;;;;;;;10.50;6.97;;;10.90;78.80;;;;;;5018277;28;20556;-70
2022/11/02 04:34:31;;;;;;;9.77;5.83;;;10.80;78.80;;;;;;5008055;28;20290;-70
2022/11/02 04:36:57;;;;;;;8.50;6.30;;;10.80;79.10;;;;;;5011994;28;20185;-70
2022/11/02 04:39:23;;;;;;;10.30;6.13;;;10.80;79.90;;;;;;5009251;28;20282;-70
2022/11/02 04:41:48;;;;;;;13.50;7.20;;;10.80;80.30;;;;;;5008506;28;20176;-70
2022/11/02 04:44:14;;;;;;;11.43;6.97;;;10.80;80.60;;;;;;5013936;28;20192;-70
2022/11/02 04:46:42;;;;;;;14.00;7.43;;;10.70;80.40;;;;;;5017068;28;21168;-70
2022/11/02 04:49:09;;;;;;;14.23;7.80;;;10.70;79.80;;;;;;5016466;28;20184;-70
2022/11/02 04:51:35;;;;;;;19.50;8.40;;;10.60;79.70;;;;;;5014326;28;20554;-70
2022/11/02 04:54:02;;;;;;;9.70;7.47;;;10.60;79.70;;;;;;5011677;28;20893;-70
2022/11/02 04:56:29;;;;;;;15.03;9.13;;;10.60;80.40;;;;;;5008195;28;20192;-70
2022/11/02 04:58:57;;;;;;;18.33;8.37;;;10.50;78.70;;;;;;5007051;28;20223;-71
2022/11/02 05:01:25;;;;;;;17.77;7.90;;;10.50;79.50;;;;;;5013882;28;20610;-70
2022/11/02 05:03:53;;;;;;;17.87;7.73;;;10.50;78.80;;;;;;5010722;28;20346;-71
2022/11/02 05:06:21;;;;;;;14.20;8.57;;;10.50;78.60;;;;;;5011150;28;20674;-71
2022/11/02 05:08:47;;;;;;;14.83;7.80;;;10.50;78.70;;;;;;5010863;28;20184;-71
2022/11/02 05:11:12;;;;;;;13.87;7.10;;;10.50;78.90;;;;;;5009780;28;20185;-72
2022/11/02 05:13:40;;;;;;;7.23;6.27;;;10.50;78.80;;;;;;5012505;28;20199;-71
2022/11/02 05:16:08;;;;;;;12.83;6.70;;;10.50;79.00;;;;;;5009513;28;20185;-70
2022/11/02 05:18:34;;;;;;;12.63;6.77;;;10.50;79.20;;;;;;5007956;28;20282;-70
2022/11/02 05:21:00;;;;;;;13.10;5.70;;;10.60;79.70;;;;;;5013707;28;20176;-71
2022/11/02 05:23:27;;;;;;;13.73;6.83;;;10.60;80.50;;;;;;5007970;28;20625;-70
2022/11/02 05:25:57;;;;;;;13.23;6.40;;;10.60;81.10;;;;;;5012663;28;20185;-70
2022/11/02 05:28:24;;;;;;;13.97;6.23;;;10.60;79.80;;;;;;5010004;28;20227;-71
2022/11/02 05:30:49;;;;;;;9.53;5.67;;;10.50;79.30;;;;;;5015964;28;20188;-70
2022/11/02 05:33:15;;;;;;;13.07;6.17;;;10.50;80.20;;;;;;5014616;28;20242;-71
2022/11/02 05:35:42;;;;;;;14.20;6.77;;;10.60;80.90;;;;;;5013801;28;20180;-71
2022/11/02 05:38:08;;;;;;;14.67;6.20;;;10.50;80.20;;;;;;5007262;28;20409;-71
2022/11/02 05:40:36;;;;;;;10.57;5.87;;;10.50;79.90;;;;;;5012252;28;20314;-70
2022/11/02 05:43:03;;;;;;;7.87;5.77;;;10.60;81.00;;;;;;5007794;28;20182;-69
2022/11/02 05:45:29;;;;;;;9.13;6.10;;;10.60;81.50;;;;;;5014172;28;20690;-70
2022/11/02 05:47:55;;;;;;;11.03;6.43;;;10.60;81.20;;;;;;5012620;28;20193;-70
2022/11/02 05:50:20;;;;;;;11.90;5.77;;;10.60;80.90;;;;;;5009028;28;20677;-71
2022/11/02 05:52:46;;;;;;;9.60;6.03;;;10.70;81.30;;;;;;5008440;28;20185;-70
2022/11/02 05:55:13;;;;;;;7.33;6.33;;;10.70;81.50;;;;;;5012213;28;20213;-70
2022/11/02 05:57:38;;;;;;;12.93;5.73;;;10.80;81.20;;;;;;5010059;28;20223;-69
2022/11/02 06:00:06;;;;;;;10.20;6.03;;;10.80;81.20;;;;;;5010928;28;20180;-71
2022/11/02 06:02:35;;;;;;;8.43;5.33;;;10.80;81.80;;;;;;5014718;28;20195;-70
2022/11/02 06:05:00;;;;;;;15.33;6.60;;;10.90;81.70;;;;;;5021280;28;20748;-70
2022/11/02 06:07:26;;;;;;;10.50;6.00;;;10.90;81.30;;;;;;5014822;28;20203;-71
2022/11/02 06:09:52;;;;;;;8.93;6.20;;;11.00;82.10;;;;;;5010279;28;20184;-70
2022/11/02 06:12:17;;;;;;;10.70;6.37;;;11.00;81.40;;;;;;5013957;28;20631;-69
2022/11/02 06:14:43;;;;;;;12.07;6.43;;;11.00;80.60;;;;;;5016585;28;20180;-70
2022/11/02 06:17:08;;;;;;;10.93;6.27;;;11.10;81.00;;;;;;5019142;28;20186;-70
2022/11/02 06:19:34;;;;;;;19.67;6.78;;;11.20;82.10;;;;;;5011893;28;20280;-71
2022/11/02 06:22:00;;;;;;;14.80;7.33;;;11.20;81.90;;;;;;5016811;28;20522;-70
2022/11/02 06:24:25;;;;;;;15.25;7.55;;;11.30;81.00;;;;;;5013980;28;20665;-69
2022/11/02 06:26:51;;;;;;;13.13;7.97;;;11.30;80.70;;;;;;5016892;28;20646;-69
2022/11/02 06:29:17;;;;;;;14.25;9.13;;;11.40;80.30;;;;;;5015758;28;20191;-71
2022/11/02 06:31:42;;;;;;;20.00;10.33;;;11.40;79.90;;;;;;5017016;28;20189;-69
2022/11/02 06:34:08;;;;;;;18.27;9.90;;;11.50;81.30;;;;;;5020503;28;20603;-69
2022/11/02 06:36:34;;;;;;;18.42;10.45;;;11.50;83.10;;;;;;5013847;28;20271;-71
2022/11/02 06:39:00;;;;;;;15.90;10.63;;;11.70;83.80;;;;;;5014257;28;20219;-71
2022/11/02 06:41:25;;;;;;;17.27;10.30;;;11.80;83.80;;;;;;5013539;28;20185;-71
2022/11/02 06:43:51;;;;;;;20.95;10.95;;;12.20;83.70;;;;;;5016236;28;20271;-71
2022/11/02 06:46:17;;;;;;;11.45;9.20;;;12.60;83.80;;;;;;5020566;28;20259;-71
2022/11/02 06:48:45;;;;;;;16.90;9.32;;;13.10;82.60;;;;;;5013004;28;20185;-70
2022/11/02 06:51:11;;;;;;;28.52;11.23;;;13.70;81.90;;;;;;5017025;28;20181;-70
2022/11/02 06:53:36;;;;;;;20.90;9.95;;;14.30;82.00;;;;;;5015066;28;20578;-70
2022/11/02 06:56:02;;;;;;;20.35;9.95;;;15.00;81.00;;;;;;5016335;28;20772;-70
2022/11/02 06:58:28;;;;;;;18.42;10.25;;;15.70;78.80;;;;;;5016953;28;20229;-71
2022/11/02 07:00:59;;;;;;;19.25;9.88;;;16.50;77.30;;;;;;5017055;28;20180;-70
2022/11/02 07:03:25;;;;;;;17.95;10.38;;;17.20;75.70;;;;;;5020905;28;20195;-71
2022/11/02 07:05:52;;;;;;;20.98;11.38;;;17.80;73.50;;;;;;5016257;28;20270;-71
2022/11/02 07:08:18;;;;;;;16.83;10.85;;;18.50;72.40;;;;;;5019196;28;20558;-70
2022/11/02 07:10:44;;;;;;;22.38;11.50;;;19.10;70.50;;;;;;5021825;28;20181;-70
2022/11/02 07:13:10;;;;;;;21.77;11.50;;;19.70;69.20;;;;;;5009528;28;20180;-70
2022/11/02 07:15:36;;;;;;;19.70;11.25;;;20.30;67.90;;;;;;5013986;28;20572;-70
2022/11/02 07:18:01;;;;;;;25.10;12.77;;;20.90;67.50;;;;;;5013212;28;20312;-70
2022/11/02 07:20:29;;;;;;;21.38;12.00;;;21.40;65.60;;;;;;5012958;28;20180;-70
2022/11/02 07:22:56;;;;;;;17.15;12.52;;;22.00;65.40;;;;;;5014539;28;20275;-70
2022/11/02 07:25:22;;;;;;;21.05;13.00;;;22.40;63.80;;;;;;5009671;28;20172;-70
2022/11/02 07:27:48;;;;;;;21.48;13.20;;;22.90;62.80;;;;;;5006845;28;20215;-70
2022/11/02 07:30:14;;;;;;;17.30;12.90;;;23.40;62.70;;;;;;5013167;28;20173;-70
2022/11/02 07:32:41;;;;;;;29.65;13.57;;;23.80;61.70;;;;;;5014616;28;20185;-70
2022/11/02 07:35:08;;;;;;;20.55;12.80;;;24.20;60.80;;;;;;5011837;28;20188;-70
2022/11/02 07:37:34;;;;;;;20.38;13.00;;;24.60;59.50;;;;;;5008712;28;20231;-70
2022/11/02 07:40:00;;;;;;;22.67;13.75;;;25.00;59.20;;;;;;5015965;28;20191;-70
2022/11/02 07:42:26;;;;;;;18.85;12.73;;;25.40;58.60;;;;;;5009502;28;20663;-70
2022/11/02 07:44:51;;;;;;;25.42;13.88;;;25.80;57.30;;;;;;5019210;28;20180;-70
2022/11/02 07:47:17;;;;;;;18.80;12.63;;;26.20;57.20;;;;;;5011963;28;20193;-70
2022/11/02 07:49:43;;;;;;;19.67;13.15;;;26.60;56.20;;;;;;5009734;28;20268;-70
2022/11/02 07:52:08;;;;;;;21.05;12.82;;;26.90;55.80;;;;;;5010770;28;20235;-70
2022/11/02 07:54:34;;;;;;;20.50;11.75;;;27.20;55.20;;;;;;5011682;28;20180;-70
2022/11/02 07:57:00;;;;;;;19.30;12.10;;;27.50;55.00;;;;;;5011334;28;20310;-69
2022/11/02 07:59:25;;;;;;;26.52;13.38;;;27.80;54.50;;;;;;5010777;28;20255;-69
2022/11/02 08:01:51;;;;;;;23.88;12.75;;;28.10;54.00;;;;;;5008890;28;20221;-70
2022/11/02 08:04:17;;;;;;;24.52;13.75;;;28.40;53.50;;;;;;5013011;28;20440;-70
2022/11/02 08:06:42;;;;;;;23.02;12.98;;;28.80;53.10;;;;;;5008272;28;20682;-69
2022/11/02 08:09:08;;;;;;;16.45;12.27;;;29.10;52.90;;;;;;5011570;28;20196;-70
2022/11/02 08:11:34;;;;;;;15.80;12.23;;;29.40;52.40;;;;;;5011797;28;20259;-70
2022/11/02 08:14:01;;;;;;;23.58;13.52;;;29.90;51.60;;;;;;5011060;28;20188;-69
2022/11/02 08:16:27;;;;;;;18.73;12.68;;;30.30;50.60;;;;;;5010417;28;20215;-70
2022/11/02 08:18:52;;;;;;;17.88;12.48;;;30.60;50.30;;;;;;5017366;28;20216;-70
2022/11/02 08:21:19;;;;;;;23.33;11.20;;;31.00;50.20;;;;;;5008363;28;20185;-70
2022/11/02 08:23:44;;;;;;;17.98;11.73;;;31.30;49.70;;;;;;5011450;28;20239;-70
2022/11/02 08:26:10;;;;;;;18.63;12.82;;;31.60;47.50;;;;;;5009360;28;20227;-70
2022/11/02 08:28:39;;;;;;;26.67;14.05;;;31.70;48.90;;;;;;5010168;28;20624;-70
2022/11/02 08:31:09;;;;;;;19.50;13.68;;;31.90;48.40;;;;;;5011387;28;20185;-70
2022/11/02 08:33:34;;;;;;;16.35;12.85;;;31.90;48.40;;;;;;5012068;28;20181;-69
2022/11/02 08:36:05;;;;;;;21.40;12.88;;;32.00;47.00;;;;;;5016938;28;20187;-69
2022/11/02 08:38:31;;;;;;;21.75;12.73;;;32.10;48.30;;;;;;5012898;28;20501;-70
2022/11/02 08:40:57;;;;;;;16.92;11.73;;;32.30;47.90;;;;;;5012583;28;20180;-71
2022/11/02 08:43:22;;;;;;;18.23;11.88;;;32.50;46.70;;;;;;5016755;28;20196;-70
2022/11/02 08:45:48;;;;;;;19.02;12.52;;;32.80;47.40;;;;;;5007166;28;21032;-70
2022/11/02 08:48:14;;;;;;;22.27;12.98;;;33.00;47.50;;;;;;5011344;28;20188;-70
2022/11/02 08:50:39;;;;;;;21.45;12.70;;;33.10;46.70;;;;;;5008558;28;20220;-70
2022/11/02 08:53:06;;;;;;;23.67;14.02;;;33.20;46.90;;;;;;5009527;28;20188;-70
2022/11/02 08:55:32;;;;;;;17.10;13.57;;;33.40;46.80;;;;;;5007726;28;20659;-70
2022/11/02 08:57:58;;;;;;;14.27;12.63;;;33.50;45.20;;;;;;5007896;28;20295;-71
2022/11/02 09:00:27;;;;;;;18.58;13.10;;;33.50;46.70;;;;;;5014046;28;20188;-70
2022/11/02 09:03:04;;;;;;;24.17;13.60;;;33.80;46.10;;;;;;5008626;28;20262;-70
2022/11/02 09:05:35;;;;;;;15.02;12.93;;;34.00;45.70;;;;;;5006730;28;20280;-70
2022/11/02 09:08:03;;;;;;;16.92;13.20;;;34.10;43.60;;;;;;5007232;28;20562;-70
2022/11/02 09:10:31;;;;;;;18.83;13.30;;;34.10;45.40;;;;;;5011982;28;20173;-70
2022/11/02 09:13:02;;;;;;;19.77;12.75;;;34.00;45.40;;;;;;5011259;28;20696;-70
2022/11/02 09:15:29;;;;;;;31.00;14.93;;;34.00;45.50;;;;;;5013472;28;20188;-70
2022/11/02 09:17:55;;;;;;;17.65;12.43;;;34.20;45.50;;;;;;5012949;28;20212;-70
2022/11/02 09:20:21;;;;;;;21.73;13.65;;;34.30;45.40;;;;;;5013798;28;20186;-70
2022/11/02 09:22:47;;;;;;;22.02;12.27;;;34.60;45.30;;;;;;5013662;28;20181;-71
2022/11/02 09:25:14;;;;;;;17.92;12.13;;;34.90;44.60;;;;;;5006696;28;20187;-71
2022/11/02 09:27:40;;;;;;;18.80;12.27;;;35.20;45.00;;;;;;5009863;28;20272;-71
2022/11/02 09:30:07;;;;;;;16.60;12.90;;;35.60;44.10;;;;;;5013518;28;20196;-71
2022/11/02 09:32:33;;;;;;;15.23;11.82;;;36.00;43.90;;;;;;5012215;28;20188;-71
2022/11/02 09:35:00;;;;;;;20.02;13.65;;;36.40;43.50;;;;;;5011714;28;20248;-71
2022/11/02 09:37:26;;;;;;;20.50;12.73;;;36.60;43.50;;;;;;5011074;28;20185;-71
2022/11/02 09:39:52;;;;;;;19.60;13.60;;;36.80;43.50;;;;;;5008769;28;20207;-71
2022/11/02 09:42:24;;;;;;;17.67;12.90;;;36.90;41.30;;;;;;5007809;28;20212;-71
2022/11/02 09:44:58;;;;;;;22.52;13.25;;;37.00;43.20;;;;;;5007759;28;20635;-71
2022/11/02 09:47:27;;;;;;;21.17;13.27;;;37.00;43.20;;;;;;5010127;28;21102;-71
2022/11/02 09:49:54;;;;;;;17.48;13.00;;;37.00;43.30;;;;;;5014367;28;20616;-71
2022/11/02 09:52:37;;;;;;;18.63;12.77;;;36.80;41.80;;;;;;5014838;28;20203;-70
2022/11/02 09:55:12;;;;;;;20.45;12.27;;;36.80;42.80;;;;;;5007433;28;20826;-70
2022/11/02 09:57:41;;;;;;;18.52;11.10;;;37.00;43.70;;;;;;5013941;28;20716;-70
2022/11/02 10:00:13;;;;;;;15.75;11.05;;;37.20;42.20;;;;;;5013214;28;20195;-71
2022/11/02 10:03:00;;;;;;;23.02;12.30;;;37.40;43.40;;;;;;5003973;28;20196;-73
2022/11/02 10:05:43;;;;;;;15.20;11.35;;;37.70;40.30;;;;;;5008673;28;20182;-72
2022/11/02 10:08:24;;;;;;;16.58;11.18;;;38.00;42.10;;;;;;5009472;28;20979;-72
2022/11/02 10:11:05;;;;;;;13.35;10.80;;;38.30;42.30;;;;;;5008376;28;20184;-73
2022/11/02 10:13:37;;;;;;;18.52;10.70;;;38.60;41.10;;;;;;5007486;28;20285;-72
2022/11/02 10:16:29;;;;;;;16.45;11.27;;;38.80;42.30;;;;;;5005015;28;21441;-72
2022/11/02 10:18:55;;;;;;;13.27;10.52;;;39.00;41.80;;;;;;4999383;28;20586;-70
2022/11/02 10:21:31;;;;;;;21.10;10.95;;;39.20;41.40;;;;;;5009088;28;20242;-70
2022/11/02 10:24:02;;;;;;;16.20;11.13;;;39.40;42.00;;;;;;5005487;28;20222;-71
2022/11/02 10:26:36;;;;;;;16.67;11.05;;;39.70;41.30;;;;;;5007654;28;20622;-70
2022/11/02 10:29:43;;;;;;;19.85;11.25;;;39.90;41.90;;;;;;5003561;28;20183;-71
2022/11/02 10:32:12;;;;;;;12.63;10.50;;;40.10;39.40;;;;;;4959313;28;20296;-72
2022/11/02 10:34:39;;;;;;;13.07;10.63;;;40.30;41.20;;;;;;4956933;28;20205;-71
2022/11/02 10:37:22;;;;;;;18.65;11.35;;;40.50;41.40;;;;;;4959818;28;20241;-72
2022/11/02 10:40:31;;;;;;;21.15;11.15;;;40.70;41.30;;;;;;4960499;28;21690;-72
2022/11/02 10:43:28;;;;;;;15.57;9.82;;;40.80;39.10;;;;;;4894120;29;20308;-72
2022/11/02 10:46:04;;;;;;;18.58;9.90;;;40.60;36.60;;;;;;4891240;29;20299;-71
2022/11/02 10:49:06;;;;;;;13.57;8.77;;;40.60;39.70;;;;;;4892403;29;20191;-72
2022/11/02 10:51:32;;;;;;;11.93;7.93;;;40.70;37.70;;;;;;4892256;29;20198;-72
2022/11/02 10:53:58;;;;;;;13.27;7.15;;;40.90;40.10;;;;;;4891442;29;20235;-71
2022/11/02 10:56:31;;;;;;;10.25;7.32;;;41.00;38.90;;;;;;4900218;29;20204;-72
2022/11/02 10:59:17;;;;;;;14.05;7.22;;;40.90;40.30;;;;;;4893964;29;20263;-70
2022/11/02 11:01:58;;;;;;;9.45;6.68;;;41.00;38.00;;;;;;4896916;29;20200;-71
2022/11/02 11:04:28;;;;;;;7.65;6.07;;;41.00;37.90;;;;;;4894555;29;20716;-71
2022/11/02 11:06:55;;;;;;;11.75;7.00;;;41.20;38.30;;;;;;4893089;29;20211;-71
2022/11/02 11:09:30;;;;;;;13.10;6.63;;;41.20;38.30;;;;;;4918350;29;20393;-71
2022/11/02 11:12:04;;;;;;;11.82;6.53;;;41.30;39.10;;;;;;4934421;29;20680;-70
2022/11/02 11:14:35;;;;;;;4.40;4.00;;;41.30;37.00;;;;;;4934262;29;20195;-70
2022/11/02 11:17:01;;;;;;;5.18;3.20;;;41.20;39.10;;;;;;4911182;29;20210;-71
2022/11/02 11:19:33;;;;;;;5.35;3.17;;;41.00;38.00;;;;;;4997900;28;20331;-72
2022/11/02 11:22:00;;;;;;;3.70;2.45;;;40.90;39.10;;;;;;5006655;28;20196;-72
2022/11/02 11:24:28;;;;;;;5.28;2.50;;;40.70;37.50;;;;;;5013374;28;20185;-73
2022/11/02 11:27:19;;;;;;;3.17;2.53;;;40.50;38.80;;;;;;5013052;28;20180;-72
2022/11/02 11:29:51;;;;;;;3.53;2.22;;;40.30;35.40;;;;;;5010804;28;20749;-73
2022/11/02 11:32:26;;;;;;;5.07;1.60;;;39.80;37.80;;;;;;5013136;28;20790;-73
2022/11/02 11:35:09;;;;;;;4.75;1.80;;;39.10;34.90;;;;;;5005329;28;20184;-73
2022/11/02 11:37:35;;;;;;;5.38;1.63;;;38.60;36.50;;;;;;5013632;28;20210;-74
2022/11/02 11:40:15;;;;;;;5.10;2.03;;;38.00;35.10;;;;;;5013720;28;20210;-72
2022/11/02 11:42:41;;;;;;;2.17;1.50;;;37.50;37.50;;;;;;5011155;28;20195;-73
2022/11/02 11:45:21;;;;;;;2.88;1.63;;;37.10;35.40;;;;;;5007000;28;20198;-73
2022/11/02 11:48:17;;;;;;;2.80;1.40;;;36.50;37.20;;;;;;5010410;28;20207;-73
2022/11/02 11:50:47;;;;;;;5.13;1.52;;;36.20;36.20;;;;;;5013356;28;20668;-73
2022/11/02 11:53:23;;;;;;;4.88;1.75;;;36.00;36.70;;;;;;5013574;28;20891;-73
2022/11/02 11:55:51;;;;;;;4.60;1.42;;;35.90;37.20;;;;;;5012885;28;20183;-73
2022/11/02 11:58:19;;;;;;;3.22;1.33;;;35.90;36.60;;;;;;5012349;28;20212;-73
2022/11/02 12:01:16;;;;;;;1.58;1.30;;;35.80;37.00;;;;;;5010602;28;20363;-74
2022/11/02 12:03:56;;;;;;;2.78;1.25;;;35.60;36.50;;;;;;5008412;28;20184;-73
2022/11/02 12:06:33;;;;;;;5.35;1.58;;;35.50;37.40;;;;;;5012755;28;20180;-73
2022/11/02 12:08:59;;;;;;;7.15;1.63;;;35.50;37.00;;;;;;5012640;28;20188;-73
2022/11/02 12:12:02;;;;;;;5.97;1.50;;;35.60;37.90;;;;;;5016670;28;20199;-73
2022/11/02 12:15:07;;;;;;;4.35;1.88;;;35.70;37.20;;;;;;5014098;28;20271;-73
2022/11/02 12:17:38;;;;;;;6.70;1.30;;;35.80;37.30;;;;;;5015438;28;20184;-74
2022/11/02 12:20:03;;;;;;;1.42;1.35;;;35.90;37.90;;;;;;5013601;28;20246;-73
2022/11/02 12:23:07;;;;;;;3.17;2.05;;;35.90;38.50;;;;;;5016824;28;20666;-73
2022/11/02 12:25:51;;;;;;;2.78;1.60;;;35.90;37.90;;;;;;4968733;28;20185;-74
2022/11/02 12:28:40;;;;;;;2.88;1.65;;;36.20;38.00;;;;;;4968072;28;20193;-73
2022/11/02 12:31:27;;;;;;;7.25;1.63;;;36.20;37.00;;;;;;4971240;28;20277;-73
2022/11/02 12:34:01;;;;;;;2.58;1.42;;;36.30;36.30;;;;;;4969223;28;20297;-73
2022/11/02 12:37:04;;;;;;;3.45;2.13;;;36.20;37.60;;;;;;4964085;28;20225;-73
2022/11/02 12:40:01;;;;;;;1.77;1.67;;;36.20;37.80;;;;;;4903137;29;20236;-73
2022/11/02 12:42:30;;;;;;;4.13;1.83;;;35.90;37.50;;;;;;4902815;29;20223;-73
2022/11/02 12:45:08;;;;;;;3.20;2.05;;;35.80;37.80;;;;;;4902845;29;20218;-73
2022/11/02 12:47:37;;;;;;;6.45;2.05;;;35.70;38.40;;;;;;4902489;29;20270;-74
2022/11/02 12:50:20;;;;;;;6.03;1.75;;;35.70;37.90;;;;;;4902523;29;20192;-73
2022/11/02 12:53:17;;;;;;;4.10;1.90;;;35.70;38.40;;;;;;4903438;29;20192;-73
2022/11/02 12:55:47;;;;;;;4.53;1.80;;;35.70;37.30;;;;;;4870402;29;20207;-73
2022/11/02 12:58:23;;;;;;;6.90;1.92;;;35.50;38.00;;;;;;4885121;29;20221;-74
2022/11/02 13:00:59;;;;;;;5.18;1.58;;;35.50;38.20;;;;;;4884857;29;20658;-73
2022/11/02 13:03:43;;;;;;;4.50;1.80;;;35.30;38.40;;;;;;4885470;29;20200;-73
2022/11/02 13:06:14;;;;;;;5.30;1.75;;;35.20;37.70;;;;;;4883700;29;20275;-73
2022/11/02 13:08:59;;;;;;;2.65;2.50;;;35.20;38.70;;;;;;4883770;29;20208;-73
2022/11/02 13:11:59;;;;;;;4.03;2.08;;;35.20;37.30;;;;;;4885253;29;20187;-74